Time;durP1;ratioP1;P1;durP2;ratioP2;P2;SDS_P1;SDS_P2;PMS_P1;PMS_P2;Temp;Humidity;BMP_temperature;BMP_pressure;BME280_temperature;BME280_humidity;BME280_pressure;Samples;Min_cycle;Max_cycle;Signal;HPM_P1;HPM_P2
2023/03/18 00:00:31;;;;;;;14.75;9.02;;;11.00;99.90;;;;;;5108015;28;20158;-81
2023/03/18 00:02:57;;;;;;;13.35;9.38;;;10.90;99.90;;;;;;5108254;28;20047;-81
2023/03/18 00:05:23;;;;;;;14.27;8.48;;;11.00;99.90;;;;;;5090188;28;20406;-81
2023/03/18 00:07:49;;;;;;;13.82;7.25;;;10.90;99.90;;;;;;5073229;28;20114;-81
2023/03/18 00:10:15;;;;;;;12.70;7.43;;;11.00;99.90;;;;;;5090061;28;20047;-80
2023/03/18 00:12:42;;;;;;;10.18;7.85;;;11.10;99.90;;;;;;5073111;28;20035;-80
2023/03/18 00:15:11;;;;;;;10.20;7.32;;;12.80;99.90;;;;;;5073224;28;20069;-81
2023/03/18 00:17:38;;;;;;;12.38;7.38;;;10.90;99.90;;;;;;5065313;28;20097;-80
2023/03/18 00:20:06;;;;;;;10.45;7.25;;;12.70;99.90;;;;;;5089459;28;20032;-80
2023/03/18 00:22:36;;;;;;;12.68;7.40;;;10.80;99.90;;;;;;5072794;28;20092;-80
2023/03/18 00:25:03;;;;;;;15.95;9.15;;;11.50;99.90;;;;;;5090161;28;20038;-80
2023/03/18 00:27:29;;;;;;;13.65;8.23;;;10.80;99.90;;;;;;5073145;28;20192;-80
2023/03/18 00:29:56;;;;;;;11.15;9.15;;;12.70;99.90;;;;;;5073322;28;20056;-81
2023/03/18 00:32:25;;;;;;;15.48;8.75;;;10.80;99.90;;;;;;5089758;28;20048;-80
2023/03/18 00:34:51;;;;;;;11.73;8.13;;;10.70;99.90;;;;;;5072744;28;20089;-80
2023/03/18 00:37:28;;;;;;;12.13;8.23;;;8.40;99.90;;;;;;5089820;28;20044;-80
2023/03/18 00:39:56;;;;;;;14.25;7.90;;;11.30;99.90;;;;;;5090221;28;20049;-80
2023/03/18 00:42:22;;;;;;;16.45;8.63;;;11.80;99.90;;;;;;5089295;28;20052;-80
2023/03/18 00:44:49;;;;;;;12.68;9.07;;;10.80;99.90;;;;;;5073618;28;20072;-81
2023/03/18 00:47:15;;;;;;;17.33;9.93;;;;;;;;;;5089919;28;20043;-80
2023/03/18 00:49:41;;;;;;;13.80;9.38;;;10.70;99.90;;;;;;5089671;28;20071;-80
2023/03/18 00:52:07;;;;;;;16.08;9.25;;;10.70;99.90;;;;;;5089401;28;20116;-79
2023/03/18 00:54:34;;;;;;;12.90;10.10;;;12.50;99.90;;;;;;5089925;28;20039;-80
2023/03/18 00:57:00;;;;;;;15.70;9.38;;;11.10;99.90;;;;;;5089195;28;20047;-80
2023/03/18 00:59:26;;;;;;;14.80;9.55;;;8.60;99.90;;;;;;5089620;28;20114;-80
2023/03/18 01:01:52;;;;;;;12.13;9.57;;;9.40;99.90;;;;;;5072782;28;20039;-79
2023/03/18 01:04:18;;;;;;;15.48;10.32;;;10.80;99.90;;;;;;5091873;28;20040;-80
2023/03/18 01:06:46;;;;;;;17.30;10.20;;;11.50;99.90;;;;;;5112341;28;20039;-80
2023/03/18 01:09:13;;;;;;;11.63;9.93;;;12.30;99.90;;;;;;5075528;28;20131;-79
2023/03/18 01:11:40;;;;;;;15.27;10.95;;;;;;;;;;5076580;28;20047;-80
2023/03/18 01:14:06;;;;;;;22.92;12.40;;;10.70;99.90;;;;;;5076308;28;20046;-79
2023/03/18 01:16:31;;;;;;;19.42;12.23;;;10.70;99.90;;;;;;5076518;28;20400;-79
2023/03/18 01:18:58;;;;;;;15.73;12.38;;;10.70;99.90;;;;;;5093471;28;20040;-80
2023/03/18 01:21:24;;;;;;;18.75;13.32;;;11.10;99.90;;;;;;5076231;28;20035;-80
2023/03/18 01:23:50;;;;;;;17.88;13.65;;;11.70;99.90;;;;;;5092955;28;20355;-80
2023/03/18 01:26:16;;;;;;;20.45;14.68;;;11.00;99.90;;;;;;5111185;28;20065;-79
2023/03/18 01:28:42;;;;;;;21.42;15.75;;;12.20;99.90;;;;;;5076572;28;20498;-81
2023/03/18 01:31:11;;;;;;;23.83;15.73;;;10.70;99.90;;;;;;5091730;28;20047;-79
2023/03/18 01:33:37;;;;;;;25.27;15.57;;;10.50;99.90;;;;;;5076102;28;20055;-78
2023/03/18 01:36:03;;;;;;;24.33;17.40;;;11.20;99.90;;;;;;5076107;28;20077;-79
2023/03/18 01:38:30;;;;;;;23.83;18.80;;;;;;;;;;5076306;28;20040;-79
2023/03/18 01:40:57;;;;;;;22.67;17.15;;;10.50;99.90;;;;;;5093226;28;20063;-79
2023/03/18 01:43:30;;;;;;;26.45;18.58;;;13.00;99.90;;;;;;5075837;28;20078;-79
2023/03/18 01:45:59;;;;;;;26.48;18.17;;;11.70;99.90;;;;;;5110865;28;20043;-79
2023/03/18 01:48:28;;;;;;;24.67;19.00;;;10.50;99.90;;;;;;5076073;28;20483;-80
2023/03/18 01:50:58;;;;;;;24.98;20.23;;;10.50;99.90;;;;;;5092872;28;20040;-80
2023/03/18 01:53:28;;;;;;;26.52;19.55;;;10.60;99.90;;;;;;5091633;28;20060;-79
2023/03/18 01:55:56;;;;;;;26.92;19.38;;;10.40;99.90;;;;;;5092639;28;20553;-79
2023/03/18 01:58:33;;;;;;;25.67;20.60;;;10.90;99.90;;;;;;5074795;28;20048;-79
2023/03/18 02:01:24;;;;;;;23.75;20.48;;;11.00;99.90;;;;;;5075770;28;20048;-80
2023/03/18 02:03:51;;;;;;;26.55;20.58;;;10.40;99.90;;;;;;5085443;28;20530;-80
2023/03/18 02:06:17;;;;;;;26.25;21.15;;;10.40;99.90;;;;;;5074386;28;20066;-80
2023/03/18 02:08:43;;;;;;;26.05;20.08;;;12.00;99.90;;;;;;5084590;28;20039;-79
2023/03/18 02:11:10;;;;;;;29.00;21.23;;;11.30;99.90;;;;;;5091750;28;20092;-79
2023/03/18 02:13:41;;;;;;;28.50;20.70;;;11.70;99.90;;;;;;5109937;28;20119;-80
2023/03/18 02:16:29;;;;;;;28.88;21.35;;;10.20;99.90;;;;;;5074592;28;20046;-80
2023/03/18 02:19:04;;;;;;;24.23;20.10;;;10.70;99.90;;;;;;5103857;28;20046;-80
2023/03/18 02:21:39;;;;;;;;;;;11.90;99.90;;;;;;5092258;28;20547;-79
2023/03/18 02:24:23;;;;;;;28.73;23.35;;;10.10;99.90;;;;;;5110196;28;19927;-80
2023/03/18 02:27:14;;;;;;;30.70;22.95;;;10.00;99.90;;;;;;5067260;28;20075;-80
2023/03/18 02:29:42;;;;;;;27.90;22.23;;;10.00;99.90;;;;;;5092232;28;20524;-79
2023/03/18 02:32:08;;;;;;;27.27;22.13;;;12.90;99.90;;;;;;5091217;28;20035;-80
2023/03/18 02:34:36;;;;;;;25.80;21.60;;;10.00;99.90;;;;;;5091315;28;20044;-81
2023/03/18 02:37:02;;;;;;;30.23;21.67;;;10.00;99.90;;;;;;5075236;28;20061;-81
2023/03/18 02:39:30;;;;;;;34.28;24.15;;;9.90;99.90;;;;;;5075103;28;20727;-81
2023/03/18 02:41:56;;;;;;;29.52;23.23;;;9.90;99.90;;;;;;5090945;28;20046;-81
2023/03/18 02:44:22;;;;;;;31.08;23.77;;;9.90;99.90;;;;;;5109753;28;20035;-80
2023/03/18 02:47:00;;;;;;;26.95;22.10;;;9.90;99.90;;;;;;5110192;28;20070;-80
2023/03/18 02:49:26;;;;;;;28.15;22.50;;;9.80;99.90;;;;;;5090859;28;20043;-81
2023/03/18 02:51:53;;;;;;;27.38;23.45;;;11.00;99.90;;;;;;5091789;28;20450;-80
2023/03/18 02:54:26;;;;;;;25.83;21.63;;;9.80;99.90;;;;;;5091685;28;20110;-79
2023/03/18 02:56:52;;;;;;;28.30;22.23;;;10.90;99.90;;;;;;5068154;28;20398;-79
2023/03/18 02:59:19;;;;;;;28.55;21.73;;;11.30;99.90;;;;;;5091546;28;20088;-80
2023/03/18 03:01:47;;;;;;;28.63;21.88;;;10.00;99.90;;;;;;5082472;28;20651;-81
2023/03/18 03:04:14;;;;;;;29.73;23.58;;;9.70;99.90;;;;;;5091079;28;20405;-80
2023/03/18 03:06:41;;;;;;;25.67;22.88;;;;;;;;;;5109833;28;20658;-80
2023/03/18 03:09:08;;;;;;;27.92;22.88;;;9.70;99.90;;;;;;5090593;28;20142;-79
2023/03/18 03:11:35;;;;;;;31.77;22.55;;;9.90;99.90;;;;;;5091201;28;20449;-83
2023/03/18 03:14:01;;;;;;;31.42;23.55;;;;;;;;;;5091040;28;20158;-80
2023/03/18 03:16:27;;;;;;;28.90;23.30;;;9.50;99.90;;;;;;5090205;28;20497;-81
2023/03/18 03:18:53;;;;;;;31.05;24.65;;;11.40;99.90;;;;;;5091574;28;20071;-80
2023/03/18 03:21:19;;;;;;;27.90;23.98;;;9.50;99.90;;;;;;5073831;28;20054;-79
2023/03/18 03:23:46;;;;;;;28.73;23.38;;;9.50;99.90;;;;;;5073558;28;20465;-80
2023/03/18 03:26:13;;;;;;;29.60;25.17;;;9.50;99.90;;;;;;5090595;28;20039;-80
2023/03/18 03:28:39;;;;;;;29.83;22.55;;;9.40;99.90;;;;;;5073736;28;20131;-80
2023/03/18 03:31:05;;;;;;;29.02;22.33;;;9.90;99.90;;;;;;5072496;28;20055;-80
2023/03/18 03:33:32;;;;;;;28.23;23.13;;;9.50;99.90;;;;;;5091166;28;20134;-79
2023/03/18 03:35:58;;;;;;;30.88;24.05;;;12.20;99.90;;;;;;5073936;28;20040;-79
2023/03/18 03:38:25;;;;;;;34.63;23.48;;;9.60;99.90;;;;;;5073151;28;20082;-80
2023/03/18 03:40:52;;;;;;;28.30;22.90;;;9.90;99.90;;;;;;5074107;28;20081;-79
2023/03/18 03:43:18;;;;;;;29.05;22.38;;;11.50;99.90;;;;;;5073572;28;20073;-80
2023/03/18 03:45:45;;;;;;;29.48;22.85;;;;;;;;;;5090278;28;20566;-81
2023/03/18 03:48:11;;;;;;;30.77;22.95;;;9.40;99.90;;;;;;5073638;28;20078;-79
2023/03/18 03:50:38;;;;;;;29.90;23.67;;;10.40;99.90;;;;;;5090671;28;20108;-81
2023/03/18 03:53:05;;;;;;;32.22;23.50;;;10.60;99.90;;;;;;5089858;28;20538;-82
2023/03/18 03:55:32;;;;;;;31.00;23.42;;;11.90;99.90;;;;;;5090717;28;20039;-82
2023/03/18 03:57:58;;;;;;;31.58;24.50;;;11.60;99.90;;;;;;5107981;28;20031;-79
2023/03/18 04:00:24;;;;;;;32.67;23.40;;;7.20;99.90;;;;;;5073494;28;20039;-81
2023/03/18 04:02:51;;;;;;;33.83;25.98;;;9.40;99.90;;;;;;5073598;28;20047;-80
2023/03/18 04:05:18;;;;;;;35.55;24.45;;;11.70;99.90;;;;;;5089330;28;20043;-81
2023/03/18 04:07:45;;;;;;;29.85;24.25;;;9.50;99.90;;;;;;5074081;28;20497;-79
2023/03/18 04:10:13;;;;;;;32.60;23.55;;;9.50;99.90;;;;;;5089933;28;20052;-79
2023/03/18 04:12:39;;;;;;;29.73;22.58;;;9.50;99.90;;;;;;5107762;28;20051;-80
2023/03/18 04:15:06;;;;;;;34.05;24.70;;;9.40;99.90;;;;;;5090087;28;20369;-79
2023/03/18 04:17:33;;;;;;;33.03;24.13;;;9.30;99.90;;;;;;5073828;28;20051;-80
2023/03/18 04:20:00;;;;;;;29.77;22.88;;;9.30;99.90;;;;;;5089854;28;20039;-79
2023/03/18 04:22:27;;;;;;;29.27;22.50;;;;;;;;;;5072881;28;20159;-80
2023/03/18 04:24:52;;;;;;;34.75;22.98;;;9.30;99.90;;;;;;5073421;28;20035;-79
2023/03/18 04:27:19;;;;;;;28.40;22.52;;;12.20;99.90;;;;;;5072620;28;20048;-79
2023/03/18 04:29:45;;;;;;;33.40;22.85;;;9.20;99.90;;;;;;5090119;28;20060;-80
2023/03/18 04:32:11;;;;;;;28.67;22.23;;;11.70;99.90;;;;;;5107969;28;20047;-80
2023/03/18 04:34:37;;;;;;;28.88;22.23;;;10.90;99.90;;;;;;5072962;28;20047;-80
2023/03/18 04:37:03;;;;;;;27.55;20.70;;;10.40;99.90;;;;;;5089836;28;20039;-79
2023/03/18 04:39:29;;;;;;;26.63;21.75;;;9.30;99.90;;;;;;5076289;28;20047;-78
2023/03/18 04:41:55;;;;;;;29.63;22.38;;;9.80;99.90;;;;;;5093462;28;20489;-80
2023/03/18 04:44:22;;;;;;;28.45;21.40;;;10.80;99.90;;;;;;5076889;28;20089;-82
2023/03/18 04:46:48;;;;;;;28.75;21.48;;;9.30;99.90;;;;;;5077812;28;20043;-80
2023/03/18 04:49:14;;;;;;;32.25;24.27;;;9.20;99.90;;;;;;5076520;28;20096;-80
2023/03/18 04:51:39;;;;;;;28.77;21.65;;;10.30;99.90;;;;;;5076865;28;20495;-79
2023/03/18 04:54:05;;;;;;;32.88;21.42;;;9.20;99.90;;;;;;5076318;28;20084;-80
2023/03/18 04:56:32;;;;;;;28.20;22.88;;;;;;;;;;5094256;28;20533;-80
2023/03/18 04:58:58;;;;;;;30.80;21.65;;;9.20;99.90;;;;;;5077174;28;20035;-80
2023/03/18 05:01:23;;;;;;;26.67;22.10;;;9.30;99.90;;;;;;5093372;28;20527;-79
2023/03/18 05:03:49;;;;;;;26.40;21.20;;;10.00;99.90;;;;;;5076946;28;20073;-79
2023/03/18 05:06:26;;;;;;;28.73;21.50;;;9.20;99.90;;;;;;5111447;28;20078;-79
2023/03/18 05:08:52;;;;;;;28.23;20.75;;;11.10;99.90;;;;;;5068535;28;20050;-80
2023/03/18 05:11:19;;;;;;;32.88;22.30;;;9.20;99.90;;;;;;5076114;28;20050;-79
2023/03/18 05:13:45;;;;;;;28.80;21.73;;;10.70;99.90;;;;;;5076668;28;20089;-79
2023/03/18 05:16:11;;;;;;;33.97;23.90;;;9.20;99.90;;;;;;5092417;28;20126;-80
2023/03/18 05:18:40;;;;;;;32.42;22.10;;;9.20;99.90;;;;;;5094385;28;20093;-80
2023/03/18 05:21:07;;;;;;;33.05;23.58;;;9.30;99.90;;;;;;5076066;28;20039;-80
2023/03/18 05:23:33;;;;;;;29.85;23.45;;;9.30;99.90;;;;;;5075882;28;20038;-79
2023/03/18 05:25:59;;;;;;;29.83;23.02;;;9.20;99.90;;;;;;5093266;28;20070;-79
2023/03/18 05:28:26;;;;;;;36.50;24.42;;;10.90;99.90;;;;;;5093161;28;20074;-80
2023/03/18 05:30:52;;;;;;;36.42;24.90;;;;;;;;;;5092659;28;20060;-79
2023/03/18 05:33:19;;;;;;;37.85;25.88;;;9.20;99.90;;;;;;5093107;28;20491;-81
2023/03/18 05:35:47;;;;;;;40.85;26.58;;;9.20;99.90;;;;;;5094032;28;20082;-81
2023/03/18 05:38:13;;;;;;;41.78;27.73;;;9.70;99.90;;;;;;5075384;28;20071;-82
2023/03/18 05:40:40;;;;;;;42.25;27.60;;;12.60;99.90;;;;;;5093369;28;20388;-81
2023/03/18 05:43:06;;;;;;;47.00;28.77;;;9.90;99.90;;;;;;5110695;28;20036;-81
2023/03/18 05:45:32;;;;;;;43.33;29.25;;;10.00;99.90;;;;;;5075652;28;20039;-81
2023/03/18 05:47:58;;;;;;;44.42;29.15;;;10.40;99.90;;;;;;5092988;28;20042;-80
2023/03/18 05:50:35;;;;;;;40.70;27.08;;;9.80;99.90;;;;;;5074263;28;20047;-79
2023/03/18 05:53:01;;;;;;;40.05;28.13;;;;;;;;;;5068193;28;20097;-81
2023/03/18 05:55:28;;;;;;;38.13;26.73;;;9.10;99.90;;;;;;5092724;28;20043;-80
2023/03/18 05:57:55;;;;;;;32.70;24.92;;;9.10;99.90;;;;;;5075319;28;20039;-79
2023/03/18 06:00:21;;;;;;;35.95;25.77;;;9.20;99.90;;;;;;5075918;28;20059;-79
2023/03/18 06:02:47;;;;;;;35.05;26.13;;;9.20;99.90;;;;;;5092867;28;20624;-79
2023/03/18 06:05:14;;;;;;;41.65;28.63;;;6.90;99.90;;;;;;5074510;28;20479;-79
2023/03/18 06:07:40;;;;;;;40.13;27.05;;;9.20;99.90;;;;;;5092884;28;20430;-79
2023/03/18 06:10:07;;;;;;;37.28;27.40;;;10.50;99.90;;;;;;5075413;28;20039;-79
2023/03/18 06:12:33;;;;;;;41.30;28.83;;;12.20;99.90;;;;;;5091332;28;20044;-80
2023/03/18 06:14:59;;;;;;;37.85;26.42;;;6.60;99.90;;;;;;5075590;28;20043;-78
2023/03/18 06:17:24;;;;;;;36.20;25.70;;;11.40;99.90;;;;;;5092348;28;20414;-81
2023/03/18 06:19:50;;;;;;;34.78;25.60;;;9.20;99.90;;;;;;5075103;28;20101;-79
2023/03/18 06:22:16;;;;;;;33.30;24.85;;;11.00;99.90;;;;;;5109875;28;20040;-79
2023/03/18 06:24:42;;;;;;;31.95;24.27;;;11.10;99.90;;;;;;5110582;28;20407;-80
2023/03/18 06:27:08;;;;;;;30.63;23.95;;;9.30;99.90;;;;;;5074499;28;20035;-79
2023/03/18 06:29:35;;;;;;;32.53;24.30;;;9.50;99.90;;;;;;5075259;28;20048;-80
2023/03/18 06:32:02;;;;;;;32.95;23.65;;;7.90;99.90;;;;;;5109996;28;20118;-80
2023/03/18 06:34:28;;;;;;;31.15;24.35;;;9.30;99.90;;;;;;5091479;28;20057;-79
2023/03/18 06:36:53;;;;;;;38.78;25.42;;;12.20;99.90;;;;;;5091939;28;20351;-80
2023/03/18 06:39:19;;;;;;;35.53;26.13;;;9.40;99.90;;;;;;5075101;28;20043;-79
2023/03/18 06:41:46;;;;;;;33.00;24.90;;;9.30;99.90;;;;;;5057641;28;20078;-81
2023/03/18 06:44:12;;;;;;;30.35;23.63;;;9.40;99.90;;;;;;5074223;28;20503;-80
2023/03/18 06:46:38;;;;;;;37.13;25.80;;;9.40;99.90;;;;;;5074347;28;20043;-80
2023/03/18 06:49:06;;;;;;;30.80;23.50;;;8.80;99.90;;;;;;5074762;28;20130;-81
2023/03/18 06:51:33;;;;;;;32.22;25.65;;;9.40;99.90;;;;;;5091780;28;20055;-81
2023/03/18 06:53:59;;;;;;;28.70;22.75;;;9.40;99.90;;;;;;5074444;28;20126;-80
2023/03/18 06:56:25;;;;;;;34.05;24.98;;;9.40;99.90;;;;;;5109754;28;20057;-81
2023/03/18 06:58:51;;;;;;;29.17;22.70;;;12.20;99.90;;;;;;5092133;28;20494;-80
2023/03/18 07:01:18;;;;;;;32.85;24.00;;;11.00;99.90;;;;;;5073779;28;20506;-80
2023/03/18 07:03:44;;;;;;;27.35;23.63;;;12.30;99.90;;;;;;5091734;28;20043;-80
2023/03/18 07:06:10;;;;;;;39.00;26.10;;;9.40;99.90;;;;;;5109229;28;20039;-81
2023/03/18 07:08:36;;;;;;;30.27;23.42;;;9.40;99.90;;;;;;5109320;28;20036;-79
2023/03/18 07:11:02;;;;;;;34.05;24.05;;;11.50;99.90;;;;;;5109477;28;20661;-80
2023/03/18 07:13:28;;;;;;;34.67;26.95;;;9.60;99.90;;;;;;5074361;28;20076;-81
2023/03/18 07:15:55;;;;;;;33.42;25.08;;;10.20;99.90;;;;;;5073255;28;20082;-80
2023/03/18 07:18:22;;;;;;;37.40;28.35;;;9.40;99.90;;;;;;5091631;28;20044;-81
2023/03/18 07:20:48;;;;;;;39.35;27.80;;;10.40;99.90;;;;;;5091323;28;20491;-81
2023/03/18 07:23:14;;;;;;;36.67;24.85;;;9.50;99.90;;;;;;5072979;28;20036;-80
2023/03/18 07:25:41;;;;;;;37.92;25.48;;;10.90;99.90;;;;;;5074002;28;20084;-81
2023/03/18 07:28:06;;;;;;;32.22;24.15;;;12.40;99.90;;;;;;5074455;28;20070;-80
2023/03/18 07:30:33;;;;;;;30.90;25.50;;;9.60;99.90;;;;;;5073472;28;20506;-80
2023/03/18 07:32:59;;;;;;;39.63;26.35;;;9.60;99.90;;;;;;5083092;28;20095;-81
2023/03/18 07:35:24;;;;;;;32.47;25.35;;;11.70;99.90;;;;;;5106539;28;20050;-80
2023/03/18 07:37:51;;;;;;;39.28;27.55;;;9.70;99.90;;;;;;5091074;28;20048;-79
2023/03/18 07:40:16;;;;;;;36.30;25.42;;;11.00;99.90;;;;;;5090495;28;20118;-79
2023/03/18 07:42:42;;;;;;;37.15;27.30;;;9.80;99.90;;;;;;5108055;28;20431;-81
2023/03/18 07:45:09;;;;;;;34.78;25.33;;;12.30;99.90;;;;;;5090438;28;20051;-80
2023/03/18 07:47:34;;;;;;;34.10;25.25;;;9.80;99.90;;;;;;5073924;28;20065;-80
2023/03/18 07:50:00;;;;;;;36.85;25.83;;;9.90;99.90;;;;;;5089729;28;20119;-81
2023/03/18 07:52:26;;;;;;;33.45;25.58;;;9.90;99.90;;;;;;5073407;28;20043;-79
2023/03/18 07:54:51;;;;;;;30.10;25.23;;;12.30;99.90;;;;;;5074266;28;20050;-79
2023/03/18 07:57:17;;;;;;;32.40;25.38;;;9.90;99.90;;;;;;5072697;28;20130;-80
2023/03/18 07:59:44;;;;;;;40.88;27.23;;;11.60;99.90;;;;;;5090491;28;20048;-81
2023/03/18 08:02:13;;;;;;;30.00;24.52;;;10.00;99.90;;;;;;5107404;28;20047;-80
2023/03/18 08:04:39;;;;;;;36.33;25.13;;;10.00;99.90;;;;;;5090815;28;20128;-81
2023/03/18 08:07:05;;;;;;;34.40;25.70;;;10.10;99.90;;;;;;5090462;28;20391;-79
2023/03/18 08:09:31;;;;;;;29.90;23.48;;;10.10;99.90;;;;;;5089970;28;20050;-79
2023/03/18 08:11:57;;;;;;;30.20;23.25;;;10.10;99.90;;;;;;5108052;28;20041;-80
2023/03/18 08:14:22;;;;;;;31.52;23.65;;;12.20;99.90;;;;;;5108009;28;20489;-80
2023/03/18 08:16:48;;;;;;;31.40;24.75;;;10.50;99.90;;;;;;5073304;28;20071;-80
2023/03/18 08:19:14;;;;;;;29.38;23.50;;;10.20;99.90;;;;;;5090158;28;20044;-80
2023/03/18 08:21:40;;;;;;;32.00;23.70;;;10.20;99.90;;;;;;5073359;28;20054;-80
2023/03/18 08:24:06;;;;;;;29.67;24.65;;;11.70;99.90;;;;;;5089619;28;20088;-80
2023/03/18 08:26:40;;;;;;;31.63;24.38;;;10.30;99.90;;;;;;5090437;28;20051;-80
2023/03/18 08:29:06;;;;;;;29.00;24.83;;;;;;;;;;5082343;28;20479;-79
2023/03/18 08:31:32;;;;;;;29.75;24.88;;;10.30;99.90;;;;;;5107896;28;20134;-80
2023/03/18 08:33:58;;;;;;;31.63;24.38;;;13.30;99.90;;;;;;5073371;28;20158;-80
2023/03/18 08:36:25;;;;;;;35.45;25.08;;;12.30;99.90;;;;;;5070773;28;20043;-81
2023/03/18 08:38:51;;;;;;;33.42;25.02;;;12.60;99.90;;;;;;5061782;28;20066;-81
2023/03/18 08:41:17;;;;;;;32.30;24.05;;;10.30;99.90;;;;;;5086496;28;20663;-79
2023/03/18 08:43:43;;;;;;;28.52;23.73;;;10.40;99.90;;;;;;5098945;28;20047;-80
2023/03/18 08:46:09;;;;;;;34.28;23.95;;;10.30;99.90;;;;;;5059515;28;20036;-79
2023/03/18 08:48:35;;;;;;;36.08;24.05;;;10.40;99.90;;;;;;5089877;28;20055;-79
2023/03/18 08:51:07;;;;;;;33.00;26.05;;;10.30;99.90;;;;;;5107895;28;20040;-79
2023/03/18 08:53:33;;;;;;;34.95;24.73;;;10.30;99.90;;;;;;5089228;28;20032;-80
2023/03/18 08:55:59;;;;;;;35.72;26.58;;;10.40;99.90;;;;;;5107922;28;20093;-79
2023/03/18 08:58:26;;;;;;;29.42;24.70;;;10.40;99.90;;;;;;5089211;28;20394;-79
2023/03/18 09:00:54;;;;;;;37.08;23.58;;;10.40;99.90;;;;;;5073067;28;20039;-79
2023/03/18 09:03:20;;;;;;;32.42;25.33;;;10.30;99.90;;;;;;5107985;28;20028;-82
2023/03/18 09:05:52;;;;;;;34.03;26.17;;;10.40;99.90;;;;;;5089347;28;20139;-79
2023/03/18 09:08:18;;;;;;;31.90;24.30;;;10.40;99.90;;;;;;5089701;28;20105;-79
2023/03/18 09:10:44;;;;;;;34.90;24.88;;;12.10;99.90;;;;;;5089868;28;20136;-82
2023/03/18 09:13:11;;;;;;;31.13;24.70;;;11.90;99.90;;;;;;5072016;28;20126;-79
2023/03/18 09:15:37;;;;;;;36.35;24.98;;;10.50;99.90;;;;;;5090140;28;20052;-79
2023/03/18 09:18:03;;;;;;;30.90;24.77;;;11.80;99.90;;;;;;5107759;28;20399;-80
2023/03/18 09:20:29;;;;;;;30.10;25.55;;;10.60;99.90;;;;;;5089379;28;20040;-79
2023/03/18 09:22:55;;;;;;;32.67;25.88;;;11.70;99.90;;;;;;5072741;28;20081;-79
2023/03/18 09:25:20;;;;;;;31.75;26.98;;;10.70;99.90;;;;;;5073140;28;20046;-79
2023/03/18 09:27:46;;;;;;;29.27;25.73;;;10.80;99.90;;;;;;5076258;28;20031;-79
2023/03/18 09:30:14;;;;;;;32.05;24.85;;;10.90;99.90;;;;;;5111150;28;20059;-78
2023/03/18 09:32:39;;;;;;;34.03;26.55;;;11.40;99.90;;;;;;5076143;28;20050;-78
2023/03/18 09:35:06;;;;;;;27.83;24.83;;;11.00;99.90;;;;;;5108071;28;20036;-78
2023/03/18 09:37:31;;;;;;;29.05;25.10;;;12.20;99.90;;;;;;5093451;28;20044;-78
2023/03/18 09:39:58;;;;;;;31.40;26.48;;;11.20;99.90;;;;;;5076341;28;20502;-79
2023/03/18 09:42:46;;;;;;;33.20;24.10;;;11.60;99.90;;;;;;5110733;27;20954;-78
2023/03/18 09:45:43;;;;;;;33.00;25.23;;;11.20;99.90;;;;;;5070828;28;20460;-80
2023/03/18 09:48:33;;;;;;;36.78;26.35;;;11.50;99.90;;;;;;5067426;28;20096;-81
2023/03/18 09:51:23;;;;;;;34.78;24.80;;;11.50;99.90;;;;;;5092833;28;20063;-79
2023/03/18 09:54:01;;;;;;;32.60;25.55;;;9.50;99.90;;;;;;5093378;28;20042;-82
2023/03/18 09:56:31;;;;;;;32.25;25.70;;;12.00;99.90;;;;;;5092462;28;20400;-79
2023/03/18 09:59:04;;;;;;;31.77;25.77;;;12.00;99.90;;;;;;5093935;28;20095;-80
2023/03/18 10:01:36;;;;;;;32.75;25.08;;;11.80;99.90;;;;;;5092531;28;20039;-79
2023/03/18 10:04:25;;;;;;;29.50;25.65;;;11.90;99.90;;;;;;5084343;28;20534;-80
2023/03/18 10:07:00;;;;;;;33.38;25.13;;;12.00;99.90;;;;;;5093067;28;20055;-79
2023/03/18 10:09:40;;;;;;;31.48;26.35;;;12.30;99.90;;;;;;5075304;28;20575;-79
2023/03/18 10:12:33;;;;;;;29.08;24.52;;;12.10;99.90;;;;;;5084495;28;20050;-79
2023/03/18 10:15:28;;;;;;;34.35;26.50;;;12.20;99.90;;;;;;5074965;28;20491;-79
2023/03/18 10:18:10;;;;;;;31.30;25.67;;;12.20;99.90;;;;;;5091572;28;20092;-79
2023/03/18 10:20:42;;;;;;;33.10;25.50;;;12.30;99.90;;;;;;5075728;28;20051;-80
2023/03/18 10:23:26;;;;;;;33.55;25.45;;;13.20;99.90;;;;;;5091240;28;20071;-82
2023/03/18 10:25:53;;;;;;;31.90;26.27;;;12.30;99.90;;;;;;5092460;28;20562;-84
2023/03/18 10:28:55;;;;;;;29.30;24.50;;;12.40;99.90;;;;;;5091784;28;20073;-82
2023/03/18 10:31:35;;;;;;;30.00;25.10;;;12.50;99.90;;;;;;5065235;28;20048;-83
2023/03/18 10:34:15;;;;;;;28.52;24.70;;;12.60;99.90;;;;;;5071688;28;20039;-82
2023/03/18 10:36:56;;;;;;;25.95;22.67;;;12.90;99.90;;;;;;5071342;28;20040;-81
2023/03/18 10:39:25;;;;;;;29.65;24.00;;;14.20;99.90;;;;;;5071721;28;20040;-81
2023/03/18 10:41:53;;;;;;;24.95;22.27;;;13.00;99.90;;;;;;5054898;28;20044;-80
2023/03/18 10:44:27;;;;;;;29.58;23.15;;;13.10;99.90;;;;;;5053751;28;20032;-79
2023/03/18 10:46:59;;;;;;;24.10;21.42;;;14.20;99.90;;;;;;5071548;28;20055;-81
2023/03/18 10:49:31;;;;;;;25.85;23.02;;;13.10;99.90;;;;;;5071545;28;20538;-79
2023/03/18 10:52:10;;;;;;;25.30;22.65;;;13.10;99.90;;;;;;5088317;28;20153;-80
2023/03/18 10:54:51;;;;;;;26.38;21.33;;;13.20;99.90;;;;;;5054823;28;20472;-81
2023/03/18 10:57:18;;;;;;;22.52;19.58;;;13.80;99.90;;;;;;5048298;28;20448;-79
2023/03/18 10:59:44;;;;;;;21.42;19.15;;;13.20;99.90;;;;;;5054303;28;20097;-83
2023/03/18 11:02:34;;;;;;;25.17;15.82;;;13.40;99.90;;;;;;5053812;28;20123;-79
2023/03/18 11:05:15;;;;;;;15.15;12.82;;;13.50;99.90;;;;;;5054038;28;20043;-80
2023/03/18 11:08:07;;;;;;;22.13;15.70;;;13.60;99.90;;;;;;5071567;28;20084;-81
2023/03/18 11:10:42;;;;;;;14.48;13.00;;;13.80;99.90;;;;;;5054479;28;20140;-79
2023/03/18 11:13:16;;;;;;;15.20;12.25;;;14.00;99.90;;;;;;5046003;28;20549;-81
2023/03/18 11:15:49;;;;;;;19.03;14.23;;;14.00;99.90;;;;;;5054536;28;20059;-80
2023/03/18 11:18:20;;;;;;;15.77;13.25;;;14.10;99.90;;;;;;5053927;28;20446;-80
2023/03/18 11:20:59;;;;;;;16.00;12.63;;;14.20;99.90;;;;;;5070598;28;20040;-80
2023/03/18 11:23:45;;;;;;;13.45;11.55;;;14.30;99.90;;;;;;5054506;28;20380;-81
2023/03/18 11:26:26;;;;;;;15.65;12.00;;;14.20;99.90;;;;;;5053126;28;20098;-82
2023/03/18 11:29:09;;;;;;;15.35;12.45;;;14.10;99.90;;;;;;5071264;28;20036;-80
2023/03/18 11:31:48;;;;;;;15.85;14.18;;;14.10;99.90;;;;;;5070631;28;20346;-81
2023/03/18 11:34:20;;;;;;;18.80;13.40;;;14.00;99.90;;;;;;5046707;28;20047;-80
2023/03/18 11:37:03;;;;;;;20.55;13.38;;;13.90;99.90;;;;;;5071103;28;20102;-80
2023/03/18 11:39:38;;;;;;;17.15;12.70;;;13.90;99.90;;;;;;5071397;28;20036;-81
2023/03/18 11:42:20;;;;;;;15.70;11.82;;;14.10;99.90;;;;;;5061608;28;20038;-80
2023/03/18 11:44:48;;;;;;;15.23;12.23;;;13.80;99.90;;;;;;5071420;28;20043;-81
2023/03/18 11:47:30;;;;;;;14.27;11.07;;;11.50;99.90;;;;;;5069695;28;20087;-82
2023/03/18 11:49:56;;;;;;;14.40;11.63;;;14.00;99.90;;;;;;5070214;28;20047;-82
2023/03/18 11:52:39;;;;;;;14.68;11.70;;;14.10;99.90;;;;;;5069873;28;20048;-80
2023/03/18 11:55:17;;;;;;;12.23;9.35;;;14.30;99.90;;;;;;5061335;28;20471;-81
2023/03/18 11:57:52;;;;;;;12.40;10.00;;;14.50;99.90;;;;;;5070588;28;20058;-81
2023/03/18 12:00:24;;;;;;;14.57;10.02;;;14.80;99.90;;;;;;5053146;28;20054;-80
2023/03/18 12:03:37;;;;;;;15.70;10.52;;;15.30;99.90;;;;;;5069776;28;20166;-80
2023/03/18 12:06:15;;;;;;;11.48;9.48;;;15.10;99.90;;;;;;5005012;28;20048;-80
2023/03/18 12:09:00;;;;;;;12.02;9.25;;;15.40;99.90;;;;;;5070180;28;20051;-80
2023/03/18 12:11:52;;;;;;;13.80;10.25;;;15.70;99.90;;;;;;5069747;28;20040;-80
2023/03/18 12:14:36;;;;;;;15.38;11.77;;;14.90;99.90;;;;;;5080624;28;20048;-80
2023/03/18 12:17:20;;;;;;;17.05;11.73;;;14.90;99.90;;;;;;5069743;28;20090;-80
2023/03/18 12:20:06;;;;;;;14.45;11.18;;;15.00;99.90;;;;;;5070414;28;20052;-80
2023/03/18 12:23:03;;;;;;;16.20;11.68;;;15.10;99.90;;;;;;5053077;28;20060;-84
2023/03/18 12:25:51;;;;;;;16.33;13.38;;;15.20;99.90;;;;;;5065631;28;20044;-80
2023/03/18 12:28:35;;;;;;;10.45;8.52;;;15.10;99.90;;;;;;5080303;28;20059;-80
2023/03/18 12:31:21;;;;;;;8.77;7.88;;;15.10;99.90;;;;;;5069320;28;20048;-81
2023/03/18 12:34:03;;;;;;;9.07;7.50;;;15.10;99.90;;;;;;5090593;28;20116;-81
2023/03/18 12:36:56;;;;;;;11.88;8.68;;;15.10;99.90;;;;;;5089944;28;20047;-81
2023/03/18 12:39:48;;;;;;;9.85;8.32;;;15.10;99.90;;;;;;5084614;28;20421;-82
2023/03/18 12:43:07;;;;;;;9.85;8.85;;;15.30;99.90;;;;;;5075171;28;20491;-81
2023/03/18 12:45:39;;;;;;;11.73;9.15;;;15.70;99.90;;;;;;4991846;28;20499;-82
2023/03/18 12:48:17;;;;;;;13.48;8.45;;;15.90;99.90;;;;;;5008353;28;20045;-81
2023/03/18 12:50:55;;;;;;;8.63;7.25;;;16.10;99.90;;;;;;5058505;28;20123;-81